sensor_id;sensor_type;location;lat;lon;timestamp;pressure;altitude;pressure_sealevel;temperature;humidity
8703;BME280;9002;42.708;23.186;2023-05-25T00:01:08;94979.34;;;19.78;nan
8703;BME280;9002;42.708;23.186;2023-05-25T00:03:35;94980.47;;;19.82;nan
8703;BME280;9002;42.708;23.186;2023-05-25T00:06:04;94984.47;;;20.18;nan
8703;BME280;9002;42.708;23.186;2023-05-25T00:08:31;94987.81;;;20.14;nan
8703;BME280;9002;42.708;23.186;2023-05-25T00:10:59;94992.88;;;19.87;nan
8703;BME280;9002;42.708;23.186;2023-05-25T00:13:26;94985.19;;;19.52;nan
8703;BME280;9002;42.708;23.186;2023-05-25T00:15:53;94990.00;;;19.43;nan
8703;BME280;9002;42.708;23.186;2023-05-25T00:18:20;94987.63;;;19.87;nan
8703;BME280;9002;42.708;23.186;2023-05-25T00:20:46;94995.00;;;19.73;nan
8703;BME280;9002;42.708;23.186;2023-05-25T00:23:14;94979.63;;;19.65;nan
8703;BME280;9002;42.708;23.186;2023-05-25T00:25:41;94986.09;;;19.45;nan
8703;BME280;9002;42.708;23.186;2023-05-25T00:28:09;94986.97;;;19.63;nan
8703;BME280;9002;42.708;23.186;2023-05-25T00:33:02;94991.81;;;19.42;nan
8703;BME280;9002;42.708;23.186;2023-05-25T00:35:29;94997.28;;;19.12;nan
8703;BME280;9002;42.708;23.186;2023-05-25T00:37:56;94992.03;;;19.12;nan
8703;BME280;9002;42.708;23.186;2023-05-25T00:40:23;94994.97;;;18.88;nan
8703;BME280;9002;42.708;23.186;2023-05-25T00:42:50;94999.16;;;19.00;nan
8703;BME280;9002;42.708;23.186;2023-05-25T00:45:19;95003.84;;;18.87;nan
8703;BME280;9002;42.708;23.186;2023-05-25T00:47:50;94988.59;;;18.60;nan
8703;BME280;9002;42.708;23.186;2023-05-25T00:50:21;95004.66;;;18.64;nan
8703;BME280;9002;42.708;23.186;2023-05-25T00:52:48;95000.22;;;18.41;nan
8703;BME280;9002;42.708;23.186;2023-05-25T00:55:17;95000.34;;;18.34;nan
8703;BME280;9002;42.708;23.186;2023-05-25T00:57:47;95006.25;;;18.41;nan
8703;BME280;9002;42.708;23.186;2023-05-25T01:00:16;95010.34;;;18.49;nan
8703;BME280;9002;42.708;23.186;2023-05-25T01:02:47;95011.50;;;18.76;nan
8703;BME280;9002;42.708;23.186;2023-05-25T01:05:23;95021.78;;;19.18;nan
8703;BME280;9002;42.708;23.186;2023-05-25T01:07:54;95019.94;;;19.30;nan
8703;BME280;9002;42.708;23.186;2023-05-25T01:10:23;95014.88;;;19.00;nan
8703;BME280;9002;42.708;23.186;2023-05-25T01:12:52;94989.94;;;18.98;nan
8703;BME280;9002;42.708;23.186;2023-05-25T01:15:21;95002.97;;;19.50;nan
8703;BME280;9002;42.708;23.186;2023-05-25T01:17:50;95009.47;;;19.19;nan
8703;BME280;9002;42.708;23.186;2023-05-25T01:20:18;95013.38;;;19.44;nan
8703;BME280;9002;42.708;23.186;2023-05-25T01:22:50;95016.88;;;19.22;nan
8703;BME280;9002;42.708;23.186;2023-05-25T01:25:22;95009.81;;;19.10;nan
8703;BME280;9002;42.708;23.186;2023-05-25T01:27:53;95004.25;;;19.07;nan
8703;BME280;9002;42.708;23.186;2023-05-25T01:30:24;94999.31;;;18.70;nan
8703;BME280;9002;42.708;23.186;2023-05-25T01:32:52;94996.66;;;18.94;nan
8703;BME280;9002;42.708;23.186;2023-05-25T01:35:20;94991.09;;;18.78;nan
8703;BME280;9002;42.708;23.186;2023-05-25T01:37:50;94993.59;;;18.73;nan
8703;BME280;9002;42.708;23.186;2023-05-25T01:40:17;94991.66;;;18.92;nan
8703;BME280;9002;42.708;23.186;2023-05-25T01:42:44;94988.81;;;18.35;nan
8703;BME280;9002;42.708;23.186;2023-05-25T01:45:12;94987.91;;;18.41;nan
8703;BME280;9002;42.708;23.186;2023-05-25T01:47:43;94981.06;;;18.05;nan
8703;BME280;9002;42.708;23.186;2023-05-25T01:50:18;94963.53;;;17.64;nan
8703;BME280;9002;42.708;23.186;2023-05-25T01:52:54;94991.50;;;17.82;nan
8703;BME280;9002;42.708;23.186;2023-05-25T01:55:24;94976.59;;;17.83;nan
8703;BME280;9002;42.708;23.186;2023-05-25T01:57:55;94985.16;;;17.90;nan
8703;BME280;9002;42.708;23.186;2023-05-25T02:02:58;94987.44;;;18.79;nan
8703;BME280;9002;42.708;23.186;2023-05-25T02:05:26;94993.75;;;19.07;nan
8703;BME280;9002;42.708;23.186;2023-05-25T02:07:54;94993.16;;;19.17;nan
8703;BME280;9002;42.708;23.186;2023-05-25T02:10:21;94997.47;;;19.23;nan
8703;BME280;9002;42.708;23.186;2023-05-25T02:12:48;95007.50;;;19.26;nan
8703;BME280;9002;42.708;23.186;2023-05-25T02:15:15;94997.22;;;18.96;nan
8703;BME280;9002;42.708;23.186;2023-05-25T02:17:42;95007.50;;;18.74;nan
8703;BME280;9002;42.708;23.186;2023-05-25T02:20:10;95006.34;;;19.05;nan
8703;BME280;9002;42.708;23.186;2023-05-25T02:22:37;95005.72;;;19.14;nan
8703;BME280;9002;42.708;23.186;2023-05-25T02:25:06;95008.38;;;19.03;nan
8703;BME280;9002;42.708;23.186;2023-05-25T02:27:34;95009.13;;;19.15;nan
8703;BME280;9002;42.708;23.186;2023-05-25T02:30:01;95017.88;;;18.92;nan
8703;BME280;9002;42.708;23.186;2023-05-25T02:32:28;95011.84;;;18.45;nan
8703;BME280;9002;42.708;23.186;2023-05-25T02:34:55;95035.97;;;18.24;nan
8703;BME280;9002;42.708;23.186;2023-05-25T02:37:22;95026.78;;;17.91;nan
8703;BME280;9002;42.708;23.186;2023-05-25T02:39:49;95028.72;;;17.96;nan
8703;BME280;9002;42.708;23.186;2023-05-25T02:42:17;95026.88;;;17.55;nan
8703;BME280;9002;42.708;23.186;2023-05-25T02:44:44;95033.38;;;17.82;nan
8703;BME280;9002;42.708;23.186;2023-05-25T02:47:13;95025.78;;;18.04;nan
8703;BME280;9002;42.708;23.186;2023-05-25T02:49:40;95043.25;;;18.22;nan
8703;BME280;9002;42.708;23.186;2023-05-25T02:52:06;95038.69;;;18.52;nan
8703;BME280;9002;42.708;23.186;2023-05-25T02:54:33;95041.06;;;18.19;nan
8703;BME280;9002;42.708;23.186;2023-05-25T02:57:00;95043.59;;;18.25;nan
8703;BME280;9002;42.708;23.186;2023-05-25T02:59:29;95039.34;;;18.12;nan
8703;BME280;9002;42.708;23.186;2023-05-25T03:01:57;95037.19;;;17.68;nan
8703;BME280;9002;42.708;23.186;2023-05-25T03:04:24;95045.47;;;17.65;nan
8703;BME280;9002;42.708;23.186;2023-05-25T03:09:18;95045.03;;;18.09;nan
8703;BME280;9002;42.708;23.186;2023-05-25T03:11:45;95051.69;;;18.24;nan
8703;BME280;9002;42.708;23.186;2023-05-25T03:14:12;95045.75;;;18.17;nan
8703;BME280;9002;42.708;23.186;2023-05-25T03:16:40;95051.88;;;18.10;nan
8703;BME280;9002;42.708;23.186;2023-05-25T03:19:07;95043.03;;;18.35;nan
8703;BME280;9002;42.708;23.186;2023-05-25T03:21:34;95027.88;;;18.48;nan
8703;BME280;9002;42.708;23.186;2023-05-25T03:24:01;95053.22;;;18.01;nan
8703;BME280;9002;42.708;23.186;2023-05-25T03:26:28;95048.97;;;18.42;nan
8703;BME280;9002;42.708;23.186;2023-05-25T03:28:56;95057.75;;;18.47;nan
8703;BME280;9002;42.708;23.186;2023-05-25T03:31:23;95058.88;;;18.28;nan
8703;BME280;9002;42.708;23.186;2023-05-25T03:33:51;95060.06;;;18.02;nan
8703;BME280;9002;42.708;23.186;2023-05-25T03:36:18;95056.56;;;18.20;nan
8703;BME280;9002;42.708;23.186;2023-05-25T03:38:46;95055.63;;;18.03;nan
8703;BME280;9002;42.708;23.186;2023-05-25T03:41:13;95060.78;;;18.21;nan
8703;BME280;9002;42.708;23.186;2023-05-25T03:43:40;95052.16;;;18.44;nan
8703;BME280;9002;42.708;23.186;2023-05-25T03:46:06;95049.03;;;18.12;nan
8703;BME280;9002;42.708;23.186;2023-05-25T03:51:02;95053.19;;;18.55;nan
8703;BME280;9002;42.708;23.186;2023-05-25T03:53:29;95062.66;;;18.44;nan
8703;BME280;9002;42.708;23.186;2023-05-25T03:55:56;95059.59;;;18.82;nan
8703;BME280;9002;42.708;23.186;2023-05-25T04:01:05;95047.44;;;19.16;nan
8703;BME280;9002;42.708;23.186;2023-05-25T04:03:34;95056.56;;;19.13;nan
8703;BME280;9002;42.708;23.186;2023-05-25T04:06:03;95075.16;;;19.12;nan
8703;BME280;9002;42.708;23.186;2023-05-25T04:08:30;95069.41;;;19.38;nan
8703;BME280;9002;42.708;23.186;2023-05-25T04:10:58;95081.44;;;19.23;nan
8703;BME280;9002;42.708;23.186;2023-05-25T04:13:25;95080.19;;;19.65;nan
8703;BME280;9002;42.708;23.186;2023-05-25T04:18:18;95084.19;;;19.68;nan
8703;BME280;9002;42.708;23.186;2023-05-25T04:23:13;95077.16;;;20.14;nan
8703;BME280;9002;42.708;23.186;2023-05-25T04:25:40;95084.50;;;20.45;nan
8703;BME280;9002;42.708;23.186;2023-05-25T04:28:07;95076.72;;;20.67;nan
8703;BME280;9002;42.708;23.186;2023-05-25T04:30:34;95085.31;;;20.79;nan
8703;BME280;9002;42.708;23.186;2023-05-25T04:33:01;95086.88;;;20.80;nan
8703;BME280;9002;42.708;23.186;2023-05-25T04:35:27;95086.59;;;20.76;nan
8703;BME280;9002;42.708;23.186;2023-05-25T04:37:56;95094.69;;;20.92;nan
8703;BME280;9002;42.708;23.186;2023-05-25T04:40:34;95068.41;;;20.41;nan
8703;BME280;9002;42.708;23.186;2023-05-25T04:43:00;95097.53;;;20.90;nan
8703;BME280;9002;42.708;23.186;2023-05-25T04:45:27;95100.25;;;20.95;nan
8703;BME280;9002;42.708;23.186;2023-05-25T04:47:56;95104.34;;;20.53;nan
8703;BME280;9002;42.708;23.186;2023-05-25T04:50:25;95094.03;;;21.01;nan
8703;BME280;9002;42.708;23.186;2023-05-25T04:52:52;95097.84;;;21.10;nan
8703;BME280;9002;42.708;23.186;2023-05-25T04:55:19;95093.34;;;20.56;nan
8703;BME280;9002;42.708;23.186;2023-05-25T04:57:48;95084.50;;;20.79;nan
8703;BME280;9002;42.708;23.186;2023-05-25T05:00:15;95087.06;;;21.12;nan
8703;BME280;9002;42.708;23.186;2023-05-25T05:02:43;95080.66;;;20.86;nan
8703;BME280;9002;42.708;23.186;2023-05-25T05:07:36;95081.63;;;20.80;nan
8703;BME280;9002;42.708;23.186;2023-05-25T05:10:04;95084.50;;;20.79;nan
8703;BME280;9002;42.708;23.186;2023-05-25T05:14:59;95079.44;;;20.94;nan
8703;BME280;9002;42.708;23.186;2023-05-25T05:17:25;95088.41;;;21.31;nan
8703;BME280;9002;42.708;23.186;2023-05-25T05:24:47;95083.63;;;21.72;nan
8703;BME280;9002;42.708;23.186;2023-05-25T05:27:15;95081.91;;;21.39;nan
8703;BME280;9002;42.708;23.186;2023-05-25T05:29:42;95086.34;;;21.17;nan
8703;BME280;9002;42.708;23.186;2023-05-25T05:32:10;95092.81;;;21.48;nan
8703;BME280;9002;42.708;23.186;2023-05-25T05:34:37;95090.25;;;21.53;nan
8703;BME280;9002;42.708;23.186;2023-05-25T05:37:04;95096.91;;;21.60;nan
8703;BME280;9002;42.708;23.186;2023-05-25T05:39:30;95102.31;;;21.49;nan
8703;BME280;9002;42.708;23.186;2023-05-25T05:41:57;95097.47;;;21.84;nan
8703;BME280;9002;42.708;23.186;2023-05-25T05:44:24;95105.91;;;21.42;nan
8703;BME280;9002;42.708;23.186;2023-05-25T05:49:25;95107.13;;;21.57;nan
8703;BME280;9002;42.708;23.186;2023-05-25T05:51:52;95098.06;;;21.48;nan
8703;BME280;9002;42.708;23.186;2023-05-25T05:54:19;95109.72;;;21.52;nan
8703;BME280;9002;42.708;23.186;2023-05-25T05:56:46;95106.59;;;21.55;nan
8703;BME280;9002;42.708;23.186;2023-05-25T05:59:13;95109.59;;;21.85;nan
8703;BME280;9002;42.708;23.186;2023-05-25T06:01:39;95091.72;;;22.14;nan
8703;BME280;9002;42.708;23.186;2023-05-25T06:04:08;95104.34;;;22.39;nan
8703;BME280;9002;42.708;23.186;2023-05-25T06:06:36;95109.97;;;21.99;nan
8703;BME280;9002;42.708;23.186;2023-05-25T06:09:04;95091.50;;;22.48;nan
8703;BME280;9002;42.708;23.186;2023-05-25T06:11:32;95102.50;;;22.13;nan
8703;BME280;9002;42.708;23.186;2023-05-25T06:13:59;95101.50;;;22.46;nan
8703;BME280;9002;42.708;23.186;2023-05-25T06:16:26;95105.41;;;23.07;nan
8703;BME280;9002;42.708;23.186;2023-05-25T06:18:53;95113.28;;;23.02;nan
8703;BME280;9002;42.708;23.186;2023-05-25T06:21:20;95106.34;;;22.91;nan
8703;BME280;9002;42.708;23.186;2023-05-25T06:23:48;95116.00;;;23.17;nan
8703;BME280;9002;42.708;23.186;2023-05-25T06:26:15;95115.09;;;23.44;nan
8703;BME280;9002;42.708;23.186;2023-05-25T06:28:41;95112.91;;;23.83;nan
8703;BME280;9002;42.708;23.186;2023-05-25T06:31:08;95111.53;;;23.75;nan
8703;BME280;9002;42.708;23.186;2023-05-25T06:33:35;95094.09;;;23.64;nan
8703;BME280;9002;42.708;23.186;2023-05-25T06:36:02;95087.06;;;24.00;nan
8703;BME280;9002;42.708;23.186;2023-05-25T06:38:29;95110.09;;;24.20;nan
8703;BME280;9002;42.708;23.186;2023-05-25T06:40:58;95114.88;;;24.23;nan
8703;BME280;9002;42.708;23.186;2023-05-25T06:43:27;95116.13;;;24.00;nan
8703;BME280;9002;42.708;23.186;2023-05-25T06:45:54;95117.63;;;23.65;nan
8703;BME280;9002;42.708;23.186;2023-05-25T06:48:21;95116.91;;;23.95;nan
8703;BME280;9002;42.708;23.186;2023-05-25T06:50:49;95110.03;;;23.94;nan
8703;BME280;9002;42.708;23.186;2023-05-25T06:53:16;95116.25;;;23.58;nan
8703;BME280;9002;42.708;23.186;2023-05-25T06:55:42;95077.03;;;23.39;nan
8703;BME280;9002;42.708;23.186;2023-05-25T06:58:11;95119.63;;;23.48;nan
8703;BME280;9002;42.708;23.186;2023-05-25T07:00:38;95116.09;;;23.32;nan
8703;BME280;9002;42.708;23.186;2023-05-25T07:03:04;95131.28;;;23.10;nan
8703;BME280;9002;42.708;23.186;2023-05-25T07:05:31;95116.03;;;23.75;nan
8703;BME280;9002;42.708;23.186;2023-05-25T07:07:58;95108.94;;;22.86;nan
8703;BME280;9002;42.708;23.186;2023-05-25T07:10:25;95126.44;;;22.97;nan
8703;BME280;9002;42.708;23.186;2023-05-25T07:12:52;95108.31;;;22.73;nan
8703;BME280;9002;42.708;23.186;2023-05-25T07:17:47;95104.19;;;22.83;nan
8703;BME280;9002;42.708;23.186;2023-05-25T07:20:14;95101.97;;;23.12;nan
8703;BME280;9002;42.708;23.186;2023-05-25T07:22:41;95104.91;;;23.10;nan
8703;BME280;9002;42.708;23.186;2023-05-25T07:25:09;95111.03;;;23.68;nan
8703;BME280;9002;42.708;23.186;2023-05-25T07:27:35;95109.28;;;24.04;nan
8703;BME280;9002;42.708;23.186;2023-05-25T07:30:04;95104.34;;;24.84;nan
8703;BME280;9002;42.708;23.186;2023-05-25T07:32:33;95097.97;;;24.85;nan
8703;BME280;9002;42.708;23.186;2023-05-25T07:35:00;95103.13;;;25.66;nan
8703;BME280;9002;42.708;23.186;2023-05-25T07:37:26;95104.75;;;25.47;nan
8703;BME280;9002;42.708;23.186;2023-05-25T07:39:53;95111.56;;;25.73;nan
8703;BME280;9002;42.708;23.186;2023-05-25T07:42:20;95116.94;;;25.48;nan
8703;BME280;9002;42.708;23.186;2023-05-25T07:44:47;95119.88;;;24.19;nan
8703;BME280;9002;42.708;23.186;2023-05-25T07:47:14;95120.41;;;23.49;nan
8703;BME280;9002;42.708;23.186;2023-05-25T07:49:42;95122.19;;;23.95;nan
8703;BME280;9002;42.708;23.186;2023-05-25T07:52:10;95120.44;;;24.31;nan
8703;BME280;9002;42.708;23.186;2023-05-25T07:54:37;95106.47;;;24.77;nan
8703;BME280;9002;42.708;23.186;2023-05-25T07:57:04;95108.84;;;24.73;nan
8703;BME280;9002;42.708;23.186;2023-05-25T07:59:32;95115.72;;;24.99;nan
8703;BME280;9002;42.708;23.186;2023-05-25T08:01:59;95123.38;;;24.60;nan
8703;BME280;9002;42.708;23.186;2023-05-25T08:04:26;95137.69;;;24.64;nan
8703;BME280;9002;42.708;23.186;2023-05-25T08:06:54;95141.06;;;24.34;nan
8703;BME280;9002;42.708;23.186;2023-05-25T08:09:21;95143.72;;;24.40;nan
8703;BME280;9002;42.708;23.186;2023-05-25T08:11:48;95134.50;;;24.52;nan
8703;BME280;9002;42.708;23.186;2023-05-25T08:14:15;95150.09;;;23.71;nan
8703;BME280;9002;42.708;23.186;2023-05-25T08:16:42;95168.59;;;23.24;nan
8703;BME280;9002;42.708;23.186;2023-05-25T08:19:09;95163.81;;;22.84;nan
8703;BME280;9002;42.708;23.186;2023-05-25T08:21:35;95161.63;;;22.76;nan
8703;BME280;9002;42.708;23.186;2023-05-25T08:24:05;95183.75;;;21.99;nan
8703;BME280;9002;42.708;23.186;2023-05-25T08:26:33;95183.84;;;22.26;nan
8703;BME280;9002;42.708;23.186;2023-05-25T08:29:01;95189.81;;;21.56;nan
8703;BME280;9002;42.708;23.186;2023-05-25T08:31:28;95190.63;;;21.39;nan
8703;BME280;9002;42.708;23.186;2023-05-25T08:33:55;95190.09;;;21.76;nan
8703;BME280;9002;42.708;23.186;2023-05-25T08:36:23;95190.81;;;20.66;nan
8703;BME280;9002;42.708;23.186;2023-05-25T08:38:50;95202.38;;;20.25;nan
8703;BME280;9002;42.708;23.186;2023-05-25T08:41:18;95198.84;;;19.91;nan
8703;BME280;9002;42.708;23.186;2023-05-25T08:43:45;95199.47;;;20.50;nan
8703;BME280;9002;42.708;23.186;2023-05-25T08:46:13;95203.06;;;20.60;nan
8703;BME280;9002;42.708;23.186;2023-05-25T08:48:42;95197.19;;;20.70;nan
8703;BME280;9002;42.708;23.186;2023-05-25T08:51:12;95196.75;;;20.16;nan
8703;BME280;9002;42.708;23.186;2023-05-25T08:53:42;95200.25;;;20.50;nan
8703;BME280;9002;42.708;23.186;2023-05-25T08:56:13;95207.03;;;20.46;nan
8703;BME280;9002;42.708;23.186;2023-05-25T08:58:47;95208.06;;;20.05;nan
8703;BME280;9002;42.708;23.186;2023-05-25T09:01:19;95207.56;;;19.79;nan
8703;BME280;9002;42.708;23.186;2023-05-25T09:03:48;95205.84;;;20.54;nan
8703;BME280;9002;42.708;23.186;2023-05-25T09:06:16;95225.06;;;20.54;nan
8703;BME280;9002;42.708;23.186;2023-05-25T09:08:43;95217.13;;;20.26;nan
8703;BME280;9002;42.708;23.186;2023-05-25T09:13:38;95235.47;;;20.77;nan
8703;BME280;9002;42.708;23.186;2023-05-25T09:16:07;95231.94;;;20.89;nan
8703;BME280;9002;42.708;23.186;2023-05-25T09:18:33;95229.38;;;21.22;nan
8703;BME280;9002;42.708;23.186;2023-05-25T09:21:00;95223.31;;;21.60;nan
8703;BME280;9002;42.708;23.186;2023-05-25T09:23:27;95228.13;;;21.47;nan
8703;BME280;9002;42.708;23.186;2023-05-25T09:25:54;95228.78;;;21.20;nan
8703;BME280;9002;42.708;23.186;2023-05-25T09:28:21;95220.31;;;21.52;nan
8703;BME280;9002;42.708;23.186;2023-05-25T09:30:48;95217.44;;;21.20;nan
8703;BME280;9002;42.708;23.186;2023-05-25T09:33:17;95224.81;;;21.34;nan
8703;BME280;9002;42.708;23.186;2023-05-25T09:35:45;95200.53;;;20.82;nan
8703;BME280;9002;42.708;23.186;2023-05-25T09:38:12;95218.09;;;21.10;nan
8703;BME280;9002;42.708;23.186;2023-05-25T09:40:40;95217.47;;;21.36;nan
8703;BME280;9002;42.708;23.186;2023-05-25T09:43:07;95214.66;;;20.76;nan
8703;BME280;9002;42.708;23.186;2023-05-25T09:45:34;95210.41;;;20.58;nan
8703;BME280;9002;42.708;23.186;2023-05-25T09:48:02;95207.59;;;21.27;nan
8703;BME280;9002;42.708;23.186;2023-05-25T09:53:09;95194.50;;;21.92;nan
8703;BME280;9002;42.708;23.186;2023-05-25T09:55:36;95201.41;;;22.42;nan
8703;BME280;9002;42.708;23.186;2023-05-25T09:58:03;95199.84;;;22.19;nan
8703;BME280;9002;42.708;23.186;2023-05-25T10:00:31;95198.28;;;22.45;nan
8703;BME280;9002;42.708;23.186;2023-05-25T10:07:52;95188.13;;;24.22;nan
8703;BME280;9002;42.708;23.186;2023-05-25T10:10:22;95190.03;;;24.42;nan
8703;BME280;9002;42.708;23.186;2023-05-25T10:12:51;95185.03;;;23.78;nan
8703;BME280;9002;42.708;23.186;2023-05-25T10:15:20;95175.75;;;23.65;nan
8703;BME280;9002;42.708;23.186;2023-05-25T10:17:52;95181.56;;;23.30;nan
8703;BME280;9002;42.708;23.186;2023-05-25T10:20:20;95155.81;;;23.05;nan
8703;BME280;9002;42.708;23.186;2023-05-25T10:22:52;95172.78;;;22.29;nan
8703;BME280;9002;42.708;23.186;2023-05-25T10:27:55;95165.06;;;24.08;nan
8703;BME280;9002;42.708;23.186;2023-05-25T10:30:24;95160.41;;;24.40;nan
8703;BME280;9002;42.708;23.186;2023-05-25T10:32:53;95134.69;;;24.15;nan
8703;BME280;9002;42.708;23.186;2023-05-25T10:35:21;95158.13;;;23.91;nan
8703;BME280;9002;42.708;23.186;2023-05-25T10:37:50;95142.44;;;23.64;nan
8703;BME280;9002;42.708;23.186;2023-05-25T10:42:46;95124.72;;;23.18;nan
8703;BME280;9002;42.708;23.186;2023-05-25T10:45:13;95131.47;;;23.41;nan
8703;BME280;9002;42.708;23.186;2023-05-25T10:47:41;95120.06;;;23.87;nan
8703;BME280;9002;42.708;23.186;2023-05-25T10:50:18;95127.25;;;23.45;nan
8703;BME280;9002;42.708;23.186;2023-05-25T10:55:11;95116.00;;;23.17;nan
8703;BME280;9002;42.708;23.186;2023-05-25T10:57:38;95112.59;;;22.80;nan
8703;BME280;9002;42.708;23.186;2023-05-25T11:02:47;95101.50;;;23.72;nan
8703;BME280;9002;42.708;23.186;2023-05-25T11:07:51;95107.19;;;24.16;nan
8703;BME280;9002;42.708;23.186;2023-05-25T11:10:43;95104.56;;;24.36;nan
8703;BME280;9002;42.708;23.186;2023-05-25T11:13:21;95112.19;;;24.13;nan
8703;BME280;9002;42.708;23.186;2023-05-25T11:16:08;95109.59;;;24.33;nan
8703;BME280;9002;42.708;23.186;2023-05-25T11:18:38;95111.19;;;24.90;nan
8703;BME280;9002;42.708;23.186;2023-05-25T11:21:13;95109.34;;;24.85;nan
8703;BME280;9002;42.708;23.186;2023-05-25T11:23:54;95102.16;;;25.37;nan
8703;BME280;9002;42.708;23.186;2023-05-25T11:26:21;95061.25;;;25.53;nan
8703;BME280;9002;42.708;23.186;2023-05-25T11:28:50;95105.94;;;24.80;nan
8703;BME280;9002;42.708;23.186;2023-05-25T11:31:27;95116.31;;;23.68;nan
8703;BME280;9002;42.708;23.186;2023-05-25T11:33:56;95090.78;;;24.19;nan
8703;BME280;9002;42.708;23.186;2023-05-25T11:36:24;95099.56;;;24.55;nan
8703;BME280;9002;42.708;23.186;2023-05-25T11:41:19;95110.66;;;25.23;nan
8703;BME280;9002;42.708;23.186;2023-05-25T11:43:47;95109.34;;;25.06;nan
8703;BME280;9002;42.708;23.186;2023-05-25T11:46:14;95101.63;;;25.34;nan
8703;BME280;9002;42.708;23.186;2023-05-25T11:48:49;95111.94;;;25.41;nan
8703;BME280;9002;42.708;23.186;2023-05-25T11:51:17;95113.34;;;24.67;nan
8703;BME280;9002;42.708;23.186;2023-05-25T11:53:44;95115.75;;;23.71;nan
8703;BME280;9002;42.708;23.186;2023-05-25T11:56:12;95122.31;;;24.26;nan
8703;BME280;9002;42.708;23.186;2023-05-25T11:58:39;95107.72;;;24.23;nan
8703;BME280;9002;42.708;23.186;2023-05-25T12:01:16;95096.91;;;24.50;nan
8703;BME280;9002;42.708;23.186;2023-05-25T12:03:45;95106.75;;;23.62;nan
8703;BME280;9002;42.708;23.186;2023-05-25T12:06:25;95105.72;;;23.21;nan
8703;BME280;9002;42.708;23.186;2023-05-25T12:11:26;95090.84;;;24.75;nan
8703;BME280;9002;42.708;23.186;2023-05-25T12:13:54;95088.75;;;25.77;nan
8703;BME280;9002;42.708;23.186;2023-05-25T12:16:21;95094.91;;;25.67;nan
8703;BME280;9002;42.708;23.186;2023-05-25T12:18:50;95084.31;;;26.12;nan
8703;BME280;9002;42.708;23.186;2023-05-25T12:21:18;95079.31;;;26.05;nan
8703;BME280;9002;42.708;23.186;2023-05-25T12:23:45;95079.59;;;26.04;nan
8703;BME280;9002;42.708;23.186;2023-05-25T12:26:13;95068.78;;;25.95;nan
8703;BME280;9002;42.708;23.186;2023-05-25T12:28:59;95064.88;;;25.82;nan
8703;BME280;9002;42.708;23.186;2023-05-25T12:31:26;95066.97;;;25.90;nan
8703;BME280;9002;42.708;23.186;2023-05-25T12:34:05;95063.13;;;26.07;nan
8703;BME280;9002;42.708;23.186;2023-05-25T12:36:37;95035.28;;;26.04;nan
8703;BME280;9002;42.708;23.186;2023-05-25T12:39:04;95048.78;;;26.81;nan
8703;BME280;9002;42.708;23.186;2023-05-25T12:41:31;95045.03;;;26.82;nan
8703;BME280;9002;42.708;23.186;2023-05-25T12:44:18;95043.09;;;26.63;nan
8703;BME280;9002;42.708;23.186;2023-05-25T12:46:46;95042.66;;;26.80;nan
8703;BME280;9002;42.708;23.186;2023-05-25T12:49:25;95029.69;;;26.79;nan
8703;BME280;9002;42.708;23.186;2023-05-25T12:51:52;95027.66;;;26.65;nan
8703;BME280;9002;42.708;23.186;2023-05-25T12:54:37;95029.78;;;27.21;nan
8703;BME280;9002;42.708;23.186;2023-05-25T12:57:05;95018.63;;;27.67;nan
8703;BME280;9002;42.708;23.186;2023-05-25T12:59:33;95009.50;;;28.30;nan
8703;BME280;9002;42.708;23.186;2023-05-25T13:02:01;95008.75;;;28.05;nan
8703;BME280;9002;42.708;23.186;2023-05-25T13:04:29;95005.25;;;28.75;nan
8703;BME280;9002;42.708;23.186;2023-05-25T13:06:56;94996.88;;;28.81;nan
8703;BME280;9002;42.708;23.186;2023-05-25T13:09:23;94995.22;;;28.99;nan
8703;BME280;9002;42.708;23.186;2023-05-25T13:11:52;95000.69;;;28.62;nan
8703;BME280;9002;42.708;23.186;2023-05-25T13:14:20;94991.38;;;29.96;nan
8703;BME280;9002;42.708;23.186;2023-05-25T13:16:48;94967.25;;;30.77;nan
8703;BME280;9002;42.708;23.186;2023-05-25T13:19:15;94963.44;;;33.58;nan
8703;BME280;9002;42.708;23.186;2023-05-25T13:21:43;94958.25;;;37.22;nan
8703;BME280;9002;42.708;23.186;2023-05-25T13:24:10;94933.59;;;37.39;nan
8703;BME280;9002;42.708;23.186;2023-05-25T13:29:04;94958.81;;;39.24;nan
8703;BME280;9002;42.708;23.186;2023-05-25T13:31:30;94959.25;;;40.12;nan
8703;BME280;9002;42.708;23.186;2023-05-25T13:33:57;94933.13;;;41.67;nan
8703;BME280;9002;42.708;23.186;2023-05-25T13:36:25;94937.84;;;42.99;nan
8703;BME280;9002;42.708;23.186;2023-05-25T13:38:53;94939.38;;;43.18;nan
8703;BME280;9002;42.708;23.186;2023-05-25T13:41:20;94940.13;;;42.76;nan
8703;BME280;9002;42.708;23.186;2023-05-25T13:43:47;94939.38;;;43.36;nan
8703;BME280;9002;42.708;23.186;2023-05-25T13:46:14;94940.91;;;43.69;nan
8703;BME280;9002;42.708;23.186;2023-05-25T13:48:41;94943.91;;;43.99;nan
8703;BME280;9002;42.708;23.186;2023-05-25T13:51:13;94931.91;;;43.83;nan
8703;BME280;9002;42.708;23.186;2023-05-25T13:53:40;94937.69;;;42.28;nan
8703;BME280;9002;42.708;23.186;2023-05-25T13:56:09;94957.88;;;42.27;nan
8703;BME280;9002;42.708;23.186;2023-05-25T13:58:36;94933.75;;;42.11;nan
8703;BME280;9002;42.708;23.186;2023-05-25T14:01:03;94946.75;;;41.74;nan
8703;BME280;9002;42.708;23.186;2023-05-25T14:03:30;94930.28;;;42.25;nan
8703;BME280;9002;42.708;23.186;2023-05-25T14:05:57;94945.72;;;40.49;nan
8703;BME280;9002;42.708;23.186;2023-05-25T14:08:24;94938.72;;;40.45;nan
8703;BME280;9002;42.708;23.186;2023-05-25T14:10:51;94947.13;;;39.20;nan
8703;BME280;9002;42.708;23.186;2023-05-25T14:13:19;94932.50;;;41.29;nan
8703;BME280;9002;42.708;23.186;2023-05-25T14:15:46;94934.31;;;42.99;nan
8703;BME280;9002;42.708;23.186;2023-05-25T14:18:12;94930.78;;;43.52;nan
8703;BME280;9002;42.708;23.186;2023-05-25T14:20:40;94922.09;;;43.96;nan
8703;BME280;9002;42.708;23.186;2023-05-25T14:23:07;94917.50;;;43.78;nan
8703;BME280;9002;42.708;23.186;2023-05-25T14:25:34;94914.25;;;44.78;nan
8703;BME280;9002;42.708;23.186;2023-05-25T14:28:01;94898.13;;;45.77;nan
8703;BME280;9002;42.708;23.186;2023-05-25T14:30:29;94910.78;;;45.26;nan
8703;BME280;9002;42.708;23.186;2023-05-25T14:32:56;94903.59;;;44.98;nan
8703;BME280;9002;42.708;23.186;2023-05-25T14:35:22;94893.56;;;45.66;nan
8703;BME280;9002;42.708;23.186;2023-05-25T14:37:49;94892.88;;;45.14;nan
8703;BME280;9002;42.708;23.186;2023-05-25T14:40:16;94895.41;;;45.39;nan